createdAt,value
2017-01-17T00:00:37.442Z,1016.46
2017-01-17T00:01:17.991Z,1016.44
2017-01-17T00:01:58.394Z,1016.47
2017-01-17T00:02:38.925Z,1016.45
2017-01-17T00:03:19.366Z,1016.47
2017-01-17T00:03:59.908Z,1016.52
2017-01-17T00:04:40.365Z,1016.46
2017-01-17T00:05:20.879Z,1016.45
2017-01-17T00:06:01.349Z,1016.53
2017-01-17T00:06:41.869Z,1016.5
2017-01-17T00:07:22.349Z,1016.45
2017-01-17T00:08:02.856Z,1016.48
2017-01-17T00:08:43.354Z,1016.47
2017-01-17T00:09:23.893Z,1016.54
2017-01-17T00:10:04.365Z,1016.5
2017-01-17T00:10:44.901Z,1016.51
2017-01-17T00:11:25.373Z,1016.54
2017-01-17T00:12:05.883Z,1016.58
2017-01-17T00:12:46.382Z,1016.54
2017-01-17T00:13:26.918Z,1016.62
2017-01-17T00:14:07.391Z,1016.64
2017-01-17T00:14:47.901Z,1016.6
2017-01-17T00:15:28.387Z,1016.61
2017-01-17T00:16:08.906Z,1016.57
2017-01-17T00:16:49.403Z,1016.61
2017-01-17T00:17:29.939Z,1016.62
2017-01-17T00:18:10.418Z,1016.6
2017-01-17T00:18:50.972Z,1016.63
2017-01-17T00:19:31.480Z,1016.64
2017-01-17T00:20:11.961Z,1016.7
2017-01-17T00:20:52.793Z,1016.66
2017-01-17T00:21:33.268Z,1016.63
2017-01-17T00:22:13.771Z,1016.68
2017-01-17T00:24:42.353Z,1016.72
2017-01-17T00:25:22.856Z,1016.69
2017-01-17T00:26:03.334Z,1016.66
2017-01-17T00:26:43.912Z,1016.67
2017-01-17T00:27:24.363Z,1016.63
2017-01-17T00:28:04.840Z,1016.66
2017-01-17T00:28:45.363Z,1016.68
2017-01-17T00:29:25.876Z,1016.65
2017-01-17T00:30:06.382Z,1016.72
2017-01-17T00:30:46.876Z,1016.64
2017-01-17T00:31:27.406Z,1016.71
2017-01-17T00:32:08.023Z,1016.64
2017-01-17T00:32:48.455Z,1016.73
2017-01-17T00:33:28.967Z,1016.61
2017-01-17T00:34:09.480Z,1016.71
2017-01-17T00:34:50.002Z,1016.67
2017-01-17T00:35:30.434Z,1016.62
2017-01-17T00:36:10.881Z,1016.67
2017-01-17T00:36:51.431Z,1016.64
2017-01-17T00:37:31.850Z,1016.65
2017-01-17T00:38:12.364Z,1016.66
2017-01-17T00:38:52.879Z,1016.63
2017-01-17T00:39:33.338Z,1016.62
2017-01-17T00:40:13.853Z,1016.62
2017-01-17T00:40:54.476Z,1016.62
2017-01-17T00:41:35.041Z,1016.66
2017-01-17T00:42:15.571Z,1016.72
2017-01-17T00:42:56.080Z,1016.71
2017-01-17T00:43:36.626Z,1016.67
2017-01-17T00:44:17.085Z,1016.7
2017-01-17T00:44:57.600Z,1016.72
2017-01-17T00:45:38.105Z,1016.74
2017-01-17T00:46:18.669Z,1016.81
2017-01-17T00:46:59.187Z,1016.78
2017-01-17T00:47:39.660Z,1016.79
2017-01-17T00:48:20.158Z,1016.8
2017-01-17T00:49:00.652Z,1016.83
2017-01-17T00:49:41.166Z,1016.82
2017-01-17T00:50:21.653Z,1016.78
2017-01-17T00:51:02.145Z,1016.77
2017-01-17T00:51:42.674Z,1016.77
2017-01-17T00:52:23.204Z,1016.82
2017-01-17T00:53:03.708Z,1016.78
2017-01-17T00:53:44.207Z,1016.93
2017-01-17T00:54:24.655Z,1016.9
2017-01-17T00:55:05.322Z,1016.92
2017-01-17T00:55:45.887Z,1016.96
2017-01-17T00:56:26.341Z,1016.88
2017-01-17T00:57:06.860Z,1016.95
2017-01-17T00:57:47.279Z,1017.03
2017-01-17T00:58:27.775Z,1017
2017-01-17T00:59:08.263Z,1016.99
2017-01-17T00:59:48.802Z,1016.91
2017-01-17T01:00:29.243Z,1017.01
2017-01-17T01:01:09.723Z,1017.05
2017-01-17T01:01:50.150Z,1017.07
2017-01-17T01:02:30.674Z,1017.05
2017-01-17T01:03:11.093Z,1017.05
2017-01-17T01:03:51.649Z,1017.04
2017-01-17T01:04:32.070Z,1017.04
2017-01-17T01:05:12.968Z,1017.04
2017-01-17T01:05:53.430Z,1017.07
2017-01-17T01:06:34.031Z,1017.04
2017-01-17T01:07:14.627Z,1017.09
2017-01-17T01:07:55.112Z,1017.09
2017-01-17T01:08:35.623Z,1017.11
2017-01-17T01:09:16.022Z,1017.07
2017-01-17T01:09:56.638Z,1017.13
2017-01-17T01:10:37.175Z,1017.09
2017-01-17T01:11:17.650Z,1017.07
2017-01-17T01:15:18.777Z,1017.17
2017-01-17T01:15:59.245Z,1017.23
2017-01-17T01:16:39.713Z,1017.16
2017-01-17T01:17:20.207Z,1017.14
2017-01-17T01:18:00.708Z,1017.18
2017-01-17T01:18:41.188Z,1017.2
2017-01-17T01:19:21.695Z,1017.21
2017-01-17T01:20:02.223Z,1017.23
2017-01-17T01:20:42.698Z,1017.23
2017-01-17T01:21:23.175Z,1017.29
2017-01-17T01:22:03.642Z,1017.29
2017-01-17T01:22:44.174Z,1017.26
2017-01-17T01:23:24.651Z,1017.23
2017-01-17T01:24:05.125Z,1017.31
2017-01-17T01:24:45.652Z,1017.29
2017-01-17T01:25:26.111Z,1017.26
2017-01-17T01:26:06.595Z,1017.28
2017-01-17T01:26:47.074Z,1017.33
2017-01-17T01:27:27.528Z,1017.44
2017-01-17T01:28:08.037Z,1017.4
2017-01-17T01:28:48.562Z,1017.41
2017-01-17T01:29:29.063Z,1017.43
2017-01-17T01:30:09.640Z,1017.46
2017-01-17T01:30:50.136Z,1017.48
2017-01-17T01:31:30.616Z,1017.49
2017-01-17T01:32:11.114Z,1017.46
2017-01-17T01:32:51.595Z,1017.45
2017-01-17T01:33:32.086Z,1017.46
2017-01-17T01:34:12.584Z,1017.45
2017-01-17T01:34:53.133Z,1017.52
2017-01-17T01:35:33.504Z,1017.48
2017-01-17T01:36:14.003Z,1017.52
2017-01-17T01:36:54.512Z,1017.53
2017-01-17T01:37:35.053Z,1017.49
2017-01-17T01:38:15.565Z,1017.52
2017-01-17T01:38:56.026Z,1017.49
2017-01-17T01:39:36.524Z,1017.56
2017-01-17T01:40:17.056Z,1017.56
2017-01-17T01:40:57.552Z,1017.51
2017-01-17T01:41:38.068Z,1017.62
2017-01-17T01:42:18.535Z,1017.6
2017-01-17T01:42:59.073Z,1017.56
2017-01-17T01:43:39.611Z,1017.56
2017-01-17T01:44:20.163Z,1017.58
2017-01-17T01:45:00.577Z,1017.61
2017-01-17T01:45:41.027Z,1017.59
2017-01-17T01:46:21.579Z,1017.57
2017-01-17T01:47:02.030Z,1017.58
2017-01-17T01:47:42.521Z,1017.6
2017-01-17T01:48:23.086Z,1017.62
2017-01-17T01:49:03.569Z,1017.59
2017-01-17T01:49:44.062Z,1017.6
2017-01-17T01:50:24.577Z,1017.6
2017-01-17T01:51:05.071Z,1017.62
2017-01-17T01:51:45.567Z,1017.65
2017-01-17T01:52:26.078Z,1017.59
2017-01-17T01:53:06.553Z,1017.64
2017-01-17T01:53:47.057Z,1017.6
2017-01-17T01:54:27.553Z,1017.67
2017-01-17T01:55:08.051Z,1017.63
2017-01-17T01:55:48.547Z,1017.66
2017-01-17T01:56:29.049Z,1017.64
2017-01-17T01:57:09.550Z,1017.69
2017-01-17T01:57:50.055Z,1017.73
2017-01-17T01:58:30.558Z,1017.73
2017-01-17T01:59:11.710Z,1017.75
2017-01-17T01:59:51.562Z,1017.74
2017-01-17T02:00:32.032Z,1017.73
2017-01-17T02:01:12.575Z,1017.78
2017-01-17T02:01:53.111Z,1017.69
2017-01-17T02:02:33.573Z,1017.8
2017-01-17T02:03:14.086Z,1017.78
2017-01-17T02:03:54.551Z,1017.79
2017-01-17T02:04:35.056Z,1017.76
2017-01-17T02:05:15.575Z,1017.79
2017-01-17T02:05:56.044Z,1017.82
2017-01-17T02:06:36.532Z,1017.78
2017-01-17T02:07:17.069Z,1017.8
2017-01-17T02:07:57.584Z,1017.82
2017-01-17T02:08:38.082Z,1017.77
2017-01-17T02:09:18.589Z,1017.76
2017-01-17T02:09:59.103Z,1017.79
2017-01-17T02:10:39.595Z,1017.82
2017-01-17T02:11:20.122Z,1017.8
2017-01-17T02:12:00.586Z,1017.8
2017-01-17T02:12:41.133Z,1017.84
2017-01-17T02:13:21.558Z,1017.78
2017-01-17T02:15:14.668Z,1017.85
2017-01-17T02:15:55.136Z,1017.81
2017-01-17T02:16:35.682Z,1017.8
2017-01-17T02:17:16.193Z,1017.8
2017-01-17T02:17:56.687Z,1017.82
2017-01-17T02:18:37.201Z,1017.81
2017-01-17T02:19:17.690Z,1017.8
2017-01-17T02:19:58.209Z,1017.84
2017-01-17T02:20:38.687Z,1017.82
2017-01-17T02:21:19.182Z,1017.79
2017-01-17T02:21:59.714Z,1017.84
2017-01-17T02:22:40.176Z,1017.8
2017-01-17T02:23:20.633Z,1017.79
2017-01-17T02:24:01.130Z,1017.79
2017-01-17T02:24:41.636Z,1017.79
2017-01-17T02:25:22.131Z,1017.82
2017-01-17T02:26:02.646Z,1017.78
2017-01-17T02:26:43.143Z,1017.84
2017-01-17T02:27:23.638Z,1017.87
2017-01-17T02:28:04.164Z,1017.82
2017-01-17T02:28:44.742Z,1018
2017-01-17T02:29:25.184Z,1017.93
2017-01-17T02:30:05.677Z,1017.99
2017-01-17T02:30:46.169Z,1017.95
2017-01-17T02:31:26.672Z,1017.93
2017-01-17T02:32:07.183Z,1017.96
2017-01-17T02:32:47.701Z,1017.99
2017-01-17T02:33:28.208Z,1017.99
2017-01-17T02:34:08.711Z,1018.02
2017-01-17T02:34:49.207Z,1018.07
2017-01-17T02:35:29.678Z,1018.05
2017-01-17T02:36:10.196Z,1018.04
2017-01-17T02:36:50.687Z,1018.05
2017-01-17T02:37:31.201Z,1018
2017-01-17T02:38:11.671Z,1018.08
2017-01-17T02:38:52.162Z,1018.03
2017-01-17T02:39:32.687Z,1017.99
2017-01-17T02:40:13.199Z,1017.98
2017-01-17T02:40:53.706Z,1018.01
2017-01-17T02:41:34.202Z,1018.03
2017-01-17T02:42:14.705Z,1018.04
2017-01-17T02:42:55.200Z,1018.02
2017-01-17T02:43:35.732Z,1018.04
2017-01-17T02:44:16.186Z,1018.02
2017-01-17T02:44:56.676Z,1018.06
2017-01-17T02:45:37.159Z,1018
2017-01-17T02:46:17.644Z,1018.09
2017-01-17T02:46:58.144Z,1017.99
2017-01-17T02:47:38.679Z,1018.1
2017-01-17T02:48:19.229Z,1018.07
2017-01-17T02:48:59.740Z,1018.06
2017-01-17T02:49:40.221Z,1018.05
2017-01-17T02:50:20.756Z,1018.06
2017-01-17T02:51:01.333Z,1018.09
2017-01-17T02:51:41.815Z,1018.05
2017-01-17T02:52:22.342Z,1018.09
2017-01-17T02:53:02.854Z,1018.03
2017-01-17T02:53:43.297Z,1018.02
2017-01-17T02:54:23.828Z,1017.97
2017-01-17T02:55:04.278Z,1018.09
2017-01-17T02:55:44.780Z,1018.19
2017-01-17T02:56:25.317Z,1018.14
2017-01-17T02:57:05.785Z,1018.03
2017-01-17T02:57:46.293Z,1018.2
2017-01-17T02:58:26.777Z,1018.05
2017-01-17T02:59:07.261Z,1018.02
2017-01-17T02:59:47.757Z,1018
2017-01-17T03:00:28.273Z,1018.02
2017-01-17T03:01:08.798Z,1017.98
2017-01-17T03:01:49.301Z,1017.94
2017-01-17T03:02:29.809Z,1018.05
2017-01-17T03:03:10.306Z,1018.07
2017-01-17T03:03:50.844Z,1017.97
2017-01-17T03:04:31.315Z,1017.93
2017-01-17T03:05:11.817Z,1017.88
2017-01-17T03:07:40.324Z,1017.9
2017-01-17T03:08:20.796Z,1017.98
2017-01-17T03:09:01.339Z,1017.93
2017-01-17T03:09:41.773Z,1017.96
2017-01-17T03:10:22.271Z,1017.96
2017-01-17T03:11:02.793Z,1018.04
2017-01-17T03:11:43.308Z,1018.04
2017-01-17T03:12:23.806Z,1017.94
2017-01-17T03:13:04.305Z,1018.08
2017-01-17T03:13:44.822Z,1018.06
2017-01-17T03:14:25.373Z,1018.07
2017-01-17T03:15:05.801Z,1018.1
2017-01-17T03:15:46.302Z,1018
2017-01-17T03:16:26.826Z,1018.03
2017-01-17T03:17:07.318Z,1018.02
2017-01-17T03:17:47.835Z,1017.96
2017-01-17T03:18:28.316Z,1018.12
2017-01-17T03:19:08.796Z,1018.1
2017-01-17T03:19:49.291Z,1018.02
2017-01-17T03:20:29.770Z,1018.05
2017-01-17T03:21:10.265Z,1018.04
2017-01-17T03:21:50.737Z,1018.03
2017-01-17T03:22:31.260Z,1018.15
2017-01-17T03:23:11.750Z,1018
2017-01-17T03:23:52.219Z,1018.1
2017-01-17T03:24:32.731Z,1018.2
2017-01-17T03:25:13.237Z,1018.04
2017-01-17T03:25:53.784Z,1018.11
2017-01-17T03:26:34.245Z,1018.11
2017-01-17T03:27:14.715Z,1018.06
2017-01-17T03:27:55.242Z,1018.05
2017-01-17T03:28:35.717Z,1018.07
2017-01-17T03:29:16.230Z,1018.1
2017-01-17T03:29:56.693Z,1018.08
2017-01-17T03:30:37.205Z,1018.09
2017-01-17T03:31:17.711Z,1018.15
2017-01-17T03:31:58.205Z,1018.1
2017-01-17T03:32:38.720Z,1018.11
2017-01-17T03:33:19.197Z,1018.09
2017-01-17T03:33:59.688Z,1018.04
2017-01-17T03:34:40.183Z,1018.09
2017-01-17T03:35:20.660Z,1018.11
2017-01-17T03:36:01.205Z,1018.17
2017-01-17T03:36:41.701Z,1018.1
2017-01-17T03:37:22.192Z,1018.15
2017-01-17T03:38:02.720Z,1018.1
2017-01-17T03:38:43.249Z,1018.14
2017-01-17T03:39:23.753Z,1018.2
2017-01-17T03:40:04.224Z,1018.17
2017-01-17T03:40:44.737Z,1018.13
2017-01-17T03:41:25.253Z,1018.15
2017-01-17T03:42:05.760Z,1018.14
2017-01-17T03:42:46.271Z,1018.07
2017-01-17T03:43:26.770Z,1018.13
2017-01-17T03:44:07.274Z,1018.17
2017-01-17T03:44:47.786Z,1018.1
2017-01-17T03:45:28.319Z,1018.11
2017-01-17T03:46:08.826Z,1018.21
2017-01-17T03:46:49.265Z,1018.15
2017-01-17T03:47:29.765Z,1018.13
2017-01-17T03:48:10.245Z,1018.13
2017-01-17T03:48:50.756Z,1018.16
2017-01-17T03:49:31.227Z,1018.21
2017-01-17T03:50:11.729Z,1018.24
2017-01-17T03:50:52.227Z,1018.13
2017-01-17T03:51:32.733Z,1018.14
2017-01-17T03:52:13.236Z,1018.15
2017-01-17T03:52:53.765Z,1018.22
2017-01-17T03:53:34.254Z,1018.2
2017-01-17T03:54:14.711Z,1018.19
2017-01-17T03:54:55.227Z,1018.23
2017-01-17T03:55:35.739Z,1018.25
2017-01-17T03:56:16.201Z,1018.26
2017-01-17T03:56:56.694Z,1018.26
2017-01-17T03:57:37.230Z,1018.29
2017-01-17T03:58:17.715Z,1018.28
2017-01-17T03:58:58.230Z,1018.23
2017-01-17T03:59:38.737Z,1018.21
2017-01-17T04:00:19.221Z,1018.18
2017-01-17T04:00:59.724Z,1018.19
2017-01-17T04:01:40.214Z,1018.19
2017-01-17T04:02:20.722Z,1018.18
2017-01-17T04:03:01.264Z,1018.22
2017-01-17T04:05:19.613Z,1018.24
2017-01-17T04:06:00.114Z,1018.21
2017-01-17T04:06:40.613Z,1018.27
2017-01-17T04:07:21.125Z,1018.26
2017-01-17T04:08:01.668Z,1018.29
2017-01-17T04:08:42.115Z,1018.25
2017-01-17T04:09:22.632Z,1018.26
2017-01-17T04:10:03.099Z,1018.28
2017-01-17T04:10:43.588Z,1018.29
2017-01-17T04:11:24.064Z,1018.29
2017-01-17T04:12:04.564Z,1018.27
2017-01-17T04:12:45.057Z,1018.32
2017-01-17T04:13:25.604Z,1018.37
2017-01-17T04:14:06.081Z,1018.35
2017-01-17T04:14:46.799Z,1018.27
2017-01-17T04:15:27.189Z,1018.32
2017-01-17T04:16:07.706Z,1018.27
2017-01-17T04:16:48.205Z,1018.26
2017-01-17T04:17:28.720Z,1018.3
2017-01-17T04:18:09.229Z,1018.3
2017-01-17T04:18:49.681Z,1018.32
2017-01-17T04:19:30.201Z,1018.32
2017-01-17T04:20:10.666Z,1018.33
2017-01-17T04:20:51.180Z,1018.3
2017-01-17T04:21:31.752Z,1018.36
2017-01-17T04:22:12.230Z,1018.35
2017-01-17T04:22:52.748Z,1018.31
2017-01-17T04:23:33.244Z,1018.3
2017-01-17T04:24:13.873Z,1018.33
2017-01-17T04:24:54.243Z,1018.33
2017-01-17T04:25:34.743Z,1018.29
2017-01-17T04:26:15.257Z,1018.3
2017-01-17T04:26:55.777Z,1018.32
2017-01-17T04:27:36.223Z,1018.32
2017-01-17T04:28:16.753Z,1018.32
2017-01-17T04:28:57.236Z,1018.32
2017-01-17T04:29:37.716Z,1018.28
2017-01-17T04:30:18.250Z,1018.27
2017-01-17T04:30:58.721Z,1018.32
2017-01-17T04:31:39.234Z,1018.35
2017-01-17T04:32:19.743Z,1018.34
2017-01-17T04:33:00.228Z,1018.35
2017-01-17T04:33:40.732Z,1018.32
2017-01-17T04:34:21.241Z,1018.33
2017-01-17T04:35:01.753Z,1018.27
2017-01-17T04:35:42.214Z,1018.38
2017-01-17T04:36:22.710Z,1018.32
2017-01-17T04:37:03.244Z,1018.31
2017-01-17T04:37:43.705Z,1018.34
2017-01-17T04:38:24.222Z,1018.33
2017-01-17T04:39:04.713Z,1018.35
2017-01-17T04:39:45.227Z,1018.39
2017-01-17T04:40:25.718Z,1018.4
2017-01-17T04:41:06.233Z,1018.42
2017-01-17T04:41:46.841Z,1018.47
2017-01-17T04:42:27.298Z,1018.44
2017-01-17T04:43:07.791Z,1018.39
2017-01-17T04:43:48.333Z,1018.35
2017-01-17T04:44:28.855Z,1018.4
2017-01-17T04:45:09.350Z,1018.42
2017-01-17T04:45:49.849Z,1018.4
2017-01-17T04:46:30.329Z,1018.4
2017-01-17T04:47:10.865Z,1018.4
2017-01-17T04:47:51.339Z,1018.46
2017-01-17T04:48:31.832Z,1018.46
2017-01-17T04:49:12.314Z,1018.46
2017-01-17T04:49:52.829Z,1018.45
2017-01-17T04:50:33.353Z,1018.49
2017-01-17T04:51:13.821Z,1018.46
2017-01-17T04:51:54.312Z,1018.47
2017-01-17T04:52:34.821Z,1018.51
2017-01-17T04:53:15.338Z,1018.58
2017-01-17T04:53:55.829Z,1018.51
2017-01-17T04:54:36.311Z,1018.51
2017-01-17T04:55:16.790Z,1018.51
2017-01-17T04:55:57.302Z,1018.55
2017-01-17T04:56:37.819Z,1018.6
2017-01-17T04:57:18.293Z,1018.55
2017-01-17T04:57:58.797Z,1018.61
2017-01-17T04:58:39.307Z,1018.64
2017-01-17T04:59:19.805Z,1018.66
2017-01-17T05:00:00.357Z,1018.62
2017-01-17T05:00:40.839Z,1018.65
2017-01-17T05:01:21.376Z,1018.66
2017-01-17T05:02:01.866Z,1018.71
2017-01-17T05:02:42.379Z,1018.7
2017-01-17T05:03:22.886Z,1018.69
2017-01-17T05:04:03.386Z,1018.65
2017-01-17T05:04:43.908Z,1018.66
2017-01-17T05:05:24.427Z,1018.63
2017-01-17T05:06:04.883Z,1018.64
2017-01-17T05:06:45.394Z,1018.69
2017-01-17T05:07:25.874Z,1018.69
2017-01-17T05:08:06.392Z,1018.74
2017-01-17T05:08:46.892Z,1018.68
2017-01-17T05:09:27.358Z,1018.74
2017-01-17T05:10:07.843Z,1018.77
2017-01-17T05:10:48.333Z,1018.72
2017-01-17T05:11:28.842Z,1018.71
2017-01-17T05:12:09.365Z,1018.79
2017-01-17T05:12:49.868Z,1018.73
2017-01-17T05:13:30.428Z,1018.78
2017-01-17T05:14:10.901Z,1018.79
2017-01-17T05:14:51.431Z,1018.8
2017-01-17T05:15:31.943Z,1018.87
2017-01-17T05:16:12.426Z,1018.81
2017-01-17T05:16:52.945Z,1018.78
2017-01-17T05:17:33.462Z,1018.83
2017-01-17T05:18:13.975Z,1018.78
2017-01-17T05:18:54.481Z,1018.84
2017-01-17T05:19:35.015Z,1018.81
2017-01-17T05:20:15.477Z,1018.85
2017-01-17T05:20:55.990Z,1018.77
2017-01-17T05:21:36.492Z,1018.84
2017-01-17T05:22:16.974Z,1018.8
2017-01-17T05:22:57.487Z,1018.82
2017-01-17T05:23:38.025Z,1018.8
2017-01-17T05:24:18.439Z,1018.83
2017-01-17T05:24:58.950Z,1018.81
2017-01-17T05:25:39.475Z,1018.78
2017-01-17T05:26:19.932Z,1018.73
2017-01-17T05:27:00.444Z,1018.73
2017-01-17T05:27:40.967Z,1018.74
2017-01-17T05:28:21.448Z,1018.69
2017-01-17T05:29:01.941Z,1018.68
2017-01-17T05:29:42.471Z,1018.71
2017-01-17T05:30:22.989Z,1018.73
2017-01-17T05:31:03.477Z,1018.66
2017-01-17T05:31:43.965Z,1018.68
2017-01-17T05:32:24.453Z,1018.71
2017-01-17T05:33:04.946Z,1018.68
2017-01-17T05:33:45.528Z,1018.69
2017-01-17T05:34:26.046Z,1018.7
2017-01-17T05:35:06.532Z,1018.71
2017-01-17T05:35:47.050Z,1018.68
2017-01-17T05:36:27.511Z,1018.66
2017-01-17T05:37:08.025Z,1018.74
2017-01-17T05:37:48.473Z,1018.71
2017-01-17T05:38:28.981Z,1018.73
2017-01-17T05:39:09.495Z,1018.68
2017-01-17T05:39:49.986Z,1018.73
2017-01-17T05:40:30.535Z,1018.73
2017-01-17T05:41:10.997Z,1018.71
2017-01-17T05:41:51.497Z,1018.72
2017-01-17T05:42:32.024Z,1018.68
2017-01-17T05:43:12.502Z,1018.65
2017-01-17T05:43:53.053Z,1018.68
2017-01-17T05:44:33.514Z,1018.71
2017-01-17T05:45:13.967Z,1018.67
2017-01-17T05:45:54.450Z,1018.63
2017-01-17T05:46:34.997Z,1018.64
2017-01-17T05:47:15.411Z,1018.68
2017-01-17T05:47:55.914Z,1018.73
2017-01-17T05:48:36.417Z,1018.72
2017-01-17T05:49:16.933Z,1018.7
2017-01-17T05:49:57.431Z,1018.71
2017-01-17T05:50:37.905Z,1018.72
2017-01-17T05:51:18.410Z,1018.71
2017-01-17T05:51:58.916Z,1018.73
2017-01-17T05:52:39.388Z,1018.71
2017-01-17T05:53:19.957Z,1018.72
2017-01-17T05:54:00.426Z,1018.67
2017-01-17T05:54:40.874Z,1018.7
2017-01-17T05:55:21.394Z,1018.74
2017-01-17T05:56:01.917Z,1018.72
2017-01-17T05:56:42.424Z,1018.7
2017-01-17T05:57:23.108Z,1018.72
2017-01-17T05:58:03.705Z,1018.75
2017-01-17T05:58:44.177Z,1018.69
2017-01-17T05:59:24.672Z,1018.68
2017-01-17T06:00:05.164Z,1018.72
2017-01-17T06:00:45.612Z,1018.7
2017-01-17T06:01:26.145Z,1018.7
2017-01-17T06:02:06.628Z,1018.71
2017-01-17T06:02:47.058Z,1018.7
2017-01-17T06:03:27.559Z,1018.73
2017-01-17T06:04:08.095Z,1018.73
2017-01-17T06:04:48.543Z,1018.76
2017-01-17T06:05:29.023Z,1018.69
2017-01-17T06:06:09.529Z,1018.75
2017-01-17T06:06:50.047Z,1018.8
2017-01-17T06:07:30.551Z,1018.75
2017-01-17T06:08:11.068Z,1018.79
2017-01-17T06:08:51.573Z,1018.79
2017-01-17T06:09:32.065Z,1018.81
2017-01-17T06:10:12.581Z,1018.79
2017-01-17T06:10:53.097Z,1018.79
2017-01-17T06:11:33.602Z,1018.79
2017-01-17T06:12:14.103Z,1018.77
2017-01-17T06:12:54.615Z,1018.81
2017-01-17T06:13:35.099Z,1018.84
2017-01-17T06:14:15.615Z,1018.78
2017-01-17T06:14:56.076Z,1018.82
2017-01-17T06:15:36.572Z,1018.83
2017-01-17T06:16:17.060Z,1018.86
2017-01-17T06:16:57.556Z,1018.88
2017-01-17T06:17:38.041Z,1018.88
2017-01-17T06:18:18.582Z,1018.81
2017-01-17T06:18:59.081Z,1018.87
2017-01-17T06:19:39.626Z,1018.82
2017-01-17T06:20:20.060Z,1018.89
2017-01-17T06:21:00.541Z,1018.86
2017-01-17T06:21:41.097Z,1018.91
2017-01-17T06:22:21.508Z,1018.95
2017-01-17T06:24:35.058Z,1018.97
2017-01-17T06:25:15.551Z,1018.95
2017-01-17T06:25:56.067Z,1018.96
2017-01-17T06:26:36.575Z,1018.94
2017-01-17T06:27:17.028Z,1019.02
2017-01-17T06:27:57.566Z,1019.06
2017-01-17T06:28:38.038Z,1019.01
2017-01-17T06:29:18.529Z,1018.97
2017-01-17T06:29:59.004Z,1019.06
2017-01-17T06:30:39.689Z,1019.03
2017-01-17T06:31:20.150Z,1019.03
2017-01-17T06:32:00.652Z,1019.02
2017-01-17T06:32:41.183Z,1018.98
2017-01-17T06:33:21.734Z,1019.01
2017-01-17T06:34:02.209Z,1019.09
2017-01-17T06:34:42.727Z,1019.09
2017-01-17T06:35:23.175Z,1019.1
2017-01-17T06:36:03.637Z,1019.09
2017-01-17T06:38:34.767Z,1019.08
2017-01-17T06:39:15.418Z,1019.08
2017-01-17T06:39:56.015Z,1019.1
2017-01-17T06:40:36.400Z,1019.08
2017-01-17T06:41:16.846Z,1019.09
2017-01-17T06:41:58.005Z,1019.1
2017-01-17T06:42:38.457Z,1019.07
2017-01-17T06:43:18.881Z,1019.15
2017-01-17T06:43:59.448Z,1019.11
2017-01-17T06:44:39.968Z,1019.09
2017-01-17T06:45:20.521Z,1019.15
2017-01-17T06:46:01.281Z,1019.19
2017-01-17T06:46:41.537Z,1019.18
2017-01-17T06:47:22.108Z,1019.19
2017-01-17T06:48:02.557Z,1019.18
2017-01-17T06:48:43.116Z,1019.15
2017-01-17T06:49:23.635Z,1019.17
2017-01-17T06:50:04.400Z,1019.15
2017-01-17T06:50:44.705Z,1019.16
2017-01-17T06:51:25.249Z,1019.21
2017-01-17T06:52:05.742Z,1019.17
2017-01-17T06:52:46.188Z,1019.15
2017-01-17T06:53:26.814Z,1019.2
2017-01-17T06:55:40.238Z,1019.21
2017-01-17T06:56:20.992Z,1019.17
2017-01-17T06:57:01.513Z,1019.2
2017-01-17T06:57:42.106Z,1019.23
2017-01-17T06:58:22.538Z,1019.24
2017-01-17T06:59:03.143Z,1019.19
2017-01-17T06:59:43.886Z,1019.22
2017-01-17T07:01:10.780Z,1019.26
2017-01-17T07:01:51.427Z,1019.25
2017-01-17T07:02:31.837Z,1019.26
2017-01-17T07:04:53.364Z,1019.27
2017-01-17T07:05:33.883Z,1019.3
2017-01-17T07:06:14.399Z,1019.31
2017-01-17T07:06:54.880Z,1019.34
2017-01-17T07:07:35.467Z,1019.3
2017-01-17T07:08:15.954Z,1019.33
2017-01-17T07:08:56.531Z,1019.3
2017-01-17T07:09:37.361Z,1019.37
2017-01-17T07:10:17.744Z,1019.44
2017-01-17T07:10:58.252Z,1019.27
2017-01-17T07:11:38.737Z,1019.31
2017-01-17T07:12:19.195Z,1019.31
2017-01-17T07:12:59.637Z,1019.33
2017-01-17T07:13:40.108Z,1019.4
2017-01-17T07:14:20.910Z,1019.38
2017-01-17T07:15:01.400Z,1019.41
2017-01-17T07:15:42.775Z,1019.43
2017-01-17T07:16:23.115Z,1019.39
2017-01-17T07:17:03.610Z,1019.42
2017-01-17T07:17:44.093Z,1019.4
2017-01-17T07:18:24.626Z,1019.41
2017-01-17T07:19:05.547Z,1019.42
2017-01-17T07:23:59.360Z,1019.61
2017-01-17T07:24:39.966Z,1019.55
2017-01-17T07:25:20.504Z,1019.54
2017-01-17T07:27:48.942Z,1019.5
2017-01-17T07:28:29.426Z,1019.56
2017-01-17T07:29:09.960Z,1019.56
2017-01-17T07:29:50.516Z,1019.63
2017-01-17T07:30:31.038Z,1019.54
2017-01-17T07:31:12.111Z,1019.55
2017-01-17T07:31:52.827Z,1019.56
2017-01-17T07:32:33.347Z,1019.54
2017-01-17T07:33:13.890Z,1019.55
2017-01-17T07:33:54.480Z,1019.59
2017-01-17T07:34:34.987Z,1019.57
2017-01-17T07:35:15.480Z,1019.59
2017-01-17T07:35:56.045Z,1019.61
2017-01-17T07:36:36.923Z,1019.63
2017-01-17T07:37:17.235Z,1019.63
2017-01-17T07:37:57.716Z,1019.7
2017-01-17T07:38:38.237Z,1019.67
2017-01-17T07:39:19.041Z,1019.72
2017-01-17T07:39:59.526Z,1019.7
2017-01-17T07:40:40.030Z,1019.83
2017-01-17T07:41:20.548Z,1019.7
2017-01-17T07:42:01.059Z,1019.72
2017-01-17T07:42:41.573Z,1019.77
2017-01-17T07:43:22.083Z,1019.77
2017-01-17T07:44:02.590Z,1019.78
2017-01-17T07:44:43.099Z,1019.73
2017-01-17T07:45:23.613Z,1019.84
2017-01-17T07:46:04.129Z,1019.83
2017-01-17T07:46:44.642Z,1019.78
2017-01-17T07:47:25.157Z,1019.82
2017-01-17T07:48:05.672Z,1019.81
2017-01-17T07:48:46.190Z,1019.77
2017-01-17T07:49:26.803Z,1019.86
2017-01-17T07:50:07.317Z,1019.81
2017-01-17T07:50:47.858Z,1019.85
2017-01-17T07:51:28.405Z,1019.82
2017-01-17T07:52:08.923Z,1019.92
2017-01-17T07:52:49.451Z,1019.87
2017-01-17T07:53:29.974Z,1019.89
2017-01-17T07:54:10.490Z,1019.87
2017-01-17T07:54:51.009Z,1019.81
2017-01-17T07:55:31.562Z,1019.79
2017-01-17T07:56:12.089Z,1019.83
2017-01-17T07:56:52.628Z,1019.85
2017-01-17T07:57:33.137Z,1019.81
2017-01-17T07:58:13.643Z,1019.82
2017-01-17T07:58:54.162Z,1019.85
2017-01-17T07:59:34.687Z,1019.83
2017-01-17T08:00:15.217Z,1019.79
2017-01-17T08:00:55.737Z,1019.84
2017-01-17T08:01:36.253Z,1019.8
2017-01-17T08:02:16.764Z,1019.84
2017-01-17T08:02:57.284Z,1019.79
2017-01-17T08:03:37.798Z,1019.79
2017-01-17T08:04:18.338Z,1019.86
2017-01-17T08:04:58.962Z,1019.84
2017-01-17T08:05:39.395Z,1019.92
2017-01-17T08:06:19.918Z,1019.88
2017-01-17T08:07:00.438Z,1019.92
2017-01-17T08:07:40.956Z,1019.98
2017-01-17T08:08:21.462Z,1019.85
2017-01-17T08:09:02.008Z,1019.91
2017-01-17T08:09:42.537Z,1019.88
2017-01-17T08:10:23.060Z,1019.94
2017-01-17T08:11:03.583Z,1019.91
2017-01-17T08:11:44.092Z,1019.91
2017-01-17T08:12:24.604Z,1019.96
2017-01-17T08:13:05.119Z,1019.93
2017-01-17T08:13:45.644Z,1019.89
2017-01-17T08:14:26.164Z,1019.92
2017-01-17T08:15:06.689Z,1019.9
2017-01-17T08:15:47.227Z,1019.91
2017-01-17T08:16:27.745Z,1019.94
2017-01-17T08:17:08.258Z,1019.91
2017-01-17T08:17:48.777Z,1019.96
2017-01-17T08:18:29.285Z,1019.87
2017-01-17T08:19:09.784Z,1019.9
2017-01-17T08:19:50.301Z,1019.89
2017-01-17T08:20:30.817Z,1019.89
2017-01-17T08:21:11.322Z,1019.84
2017-01-17T08:21:51.841Z,1019.89
2017-01-17T08:22:32.358Z,1019.91
2017-01-17T08:23:12.877Z,1019.89
2017-01-17T08:23:53.403Z,1019.94
2017-01-17T08:24:33.964Z,1019.88
2017-01-17T08:25:14.478Z,1019.97
2017-01-17T08:25:54.991Z,1020.04
2017-01-17T08:26:35.508Z,1020.05
2017-01-17T08:27:16.036Z,1020.03
2017-01-17T08:27:56.566Z,1020.05
2017-01-17T08:28:37.082Z,1020.04
2017-01-17T08:29:17.602Z,1020.09
2017-01-17T08:29:58.121Z,1020.13
2017-01-17T08:30:38.646Z,1020.05
2017-01-17T08:31:19.154Z,1020.09
2017-01-17T08:31:59.628Z,1020
2017-01-17T08:34:17.987Z,1020.03
2017-01-17T08:34:58.506Z,1020.11
2017-01-17T08:35:39.026Z,1020.07
2017-01-17T08:36:19.545Z,1020.12
2017-01-17T08:37:00.052Z,1020.16